sensor_id;sensor_type;location;lat;lon;timestamp;P1;durP1;ratioP1;P2;durP2;ratioP2
13048;SDS011;6591;51.446;5.404;2022-11-12T00:00:27;16.37;;;12.50;;
13048;SDS011;6591;51.446;5.404;2022-11-12T00:03:12;15.87;;;13.40;;
13048;SDS011;6591;51.446;5.404;2022-11-12T00:05:58;16.93;;;13.77;;
13048;SDS011;6591;51.446;5.404;2022-11-12T00:08:44;17.17;;;13.03;;
13048;SDS011;6591;51.446;5.404;2022-11-12T00:11:29;16.77;;;13.33;;
13048;SDS011;6591;51.446;5.404;2022-11-12T00:14:15;16.77;;;12.27;;
13048;SDS011;6591;51.446;5.404;2022-11-12T00:17:00;15.67;;;12.43;;
13048;SDS011;6591;51.446;5.404;2022-11-12T00:19:46;17.50;;;12.70;;
13048;SDS011;6591;51.446;5.404;2022-11-12T00:22:31;15.60;;;11.80;;
13048;SDS011;6591;51.446;5.404;2022-11-12T00:25:17;13.87;;;11.73;;
13048;SDS011;6591;51.446;5.404;2022-11-12T00:28:03;15.57;;;12.57;;
13048;SDS011;6591;51.446;5.404;2022-11-12T00:30:51;13.87;;;10.63;;
13048;SDS011;6591;51.446;5.404;2022-11-12T00:33:40;13.40;;;11.03;;
13048;SDS011;6591;51.446;5.404;2022-11-12T00:37:22;14.30;;;10.67;;
13048;SDS011;6591;51.446;5.404;2022-11-12T00:40:09;14.20;;;11.53;;
13048;SDS011;6591;51.446;5.404;2022-11-12T00:42:54;14.57;;;11.10;;
13048;SDS011;6591;51.446;5.404;2022-11-12T00:45:41;16.00;;;12.23;;
13048;SDS011;6591;51.446;5.404;2022-11-12T00:48:27;12.47;;;10.57;;
13048;SDS011;6591;51.446;5.404;2022-11-12T00:51:13;13.40;;;10.47;;
13048;SDS011;6591;51.446;5.404;2022-11-12T00:53:58;14.07;;;11.03;;
13048;SDS011;6591;51.446;5.404;2022-11-12T00:56:47;14.43;;;11.60;;
13048;SDS011;6591;51.446;5.404;2022-11-12T00:59:33;12.80;;;10.83;;
13048;SDS011;6591;51.446;5.404;2022-11-12T01:02:18;15.87;;;11.37;;
13048;SDS011;6591;51.446;5.404;2022-11-12T01:05:04;12.37;;;9.97;;
13048;SDS011;6591;51.446;5.404;2022-11-12T01:07:50;14.27;;;10.57;;
13048;SDS011;6591;51.446;5.404;2022-11-12T01:10:40;13.80;;;10.10;;
13048;SDS011;6591;51.446;5.404;2022-11-12T01:13:25;14.20;;;10.40;;
13048;SDS011;6591;51.446;5.404;2022-11-12T01:16:12;12.97;;;10.40;;
13048;SDS011;6591;51.446;5.404;2022-11-12T01:19:05;12.77;;;9.70;;
13048;SDS011;6591;51.446;5.404;2022-11-12T01:21:54;13.60;;;10.07;;
13048;SDS011;6591;51.446;5.404;2022-11-12T01:24:39;12.03;;;10.00;;
13048;SDS011;6591;51.446;5.404;2022-11-12T01:27:25;13.00;;;10.07;;
13048;SDS011;6591;51.446;5.404;2022-11-12T01:30:10;11.97;;;9.23;;
13048;SDS011;6591;51.446;5.404;2022-11-12T01:32:56;10.43;;;9.00;;
13048;SDS011;6591;51.446;5.404;2022-11-12T01:35:42;13.20;;;9.73;;
13048;SDS011;6591;51.446;5.404;2022-11-12T01:38:27;13.20;;;10.00;;
13048;SDS011;6591;51.446;5.404;2022-11-12T01:41:16;11.30;;;9.00;;
13048;SDS011;6591;51.446;5.404;2022-11-12T01:47:17;12.93;;;9.90;;
13048;SDS011;6591;51.446;5.404;2022-11-12T01:50:13;11.80;;;9.63;;
13048;SDS011;6591;51.446;5.404;2022-11-12T01:53:17;11.47;;;9.50;;
13048;SDS011;6591;51.446;5.404;2022-11-12T01:56:05;13.07;;;9.90;;
13048;SDS011;6591;51.446;5.404;2022-11-12T01:58:53;12.43;;;9.53;;
13048;SDS011;6591;51.446;5.404;2022-11-12T02:01:51;11.10;;;9.87;;
13048;SDS011;6591;51.446;5.404;2022-11-12T02:04:37;14.27;;;10.27;;
13048;SDS011;6591;51.446;5.404;2022-11-12T02:07:26;11.70;;;9.30;;
13048;SDS011;6591;51.446;5.404;2022-11-12T02:10:15;11.60;;;10.30;;
13048;SDS011;6591;51.446;5.404;2022-11-12T02:13:01;13.97;;;9.80;;
13048;SDS011;6591;51.446;5.404;2022-11-12T02:16:05;9.60;;;8.17;;
13048;SDS011;6591;51.446;5.404;2022-11-12T02:18:53;10.77;;;9.03;;
13048;SDS011;6591;51.446;5.404;2022-11-12T02:21:39;10.73;;;9.37;;
13048;SDS011;6591;51.446;5.404;2022-11-12T02:27:11;12.33;;;9.70;;
13048;SDS011;6591;51.446;5.404;2022-11-12T02:29:57;11.13;;;9.23;;
13048;SDS011;6591;51.446;5.404;2022-11-12T02:32:43;12.53;;;9.47;;
13048;SDS011;6591;51.446;5.404;2022-11-12T02:35:28;11.40;;;9.53;;
13048;SDS011;6591;51.446;5.404;2022-11-12T02:38:15;11.57;;;9.03;;
13048;SDS011;6591;51.446;5.404;2022-11-12T02:41:00;12.43;;;8.77;;
13048;SDS011;6591;51.446;5.404;2022-11-12T02:43:46;13.20;;;9.20;;
13048;SDS011;6591;51.446;5.404;2022-11-12T02:46:31;11.17;;;8.47;;
13048;SDS011;6591;51.446;5.404;2022-11-12T02:49:16;11.30;;;9.17;;
13048;SDS011;6591;51.446;5.404;2022-11-12T02:52:02;12.93;;;8.37;;
13048;SDS011;6591;51.446;5.404;2022-11-12T02:54:47;15.60;;;9.23;;
13048;SDS011;6591;51.446;5.404;2022-11-12T02:57:33;11.30;;;9.10;;
13048;SDS011;6591;51.446;5.404;2022-11-12T03:00:19;10.23;;;8.60;;
13048;SDS011;6591;51.446;5.404;2022-11-12T03:03:04;11.83;;;8.37;;
13048;SDS011;6591;51.446;5.404;2022-11-12T03:05:57;10.37;;;8.27;;
13048;SDS011;6591;51.446;5.404;2022-11-12T03:08:44;9.20;;;8.17;;
13048;SDS011;6591;51.446;5.404;2022-11-12T03:11:30;13.30;;;8.63;;
13048;SDS011;6591;51.446;5.404;2022-11-12T03:14:15;9.73;;;7.97;;
13048;SDS011;6591;51.446;5.404;2022-11-12T03:17:00;10.23;;;7.63;;
13048;SDS011;6591;51.446;5.404;2022-11-12T03:19:46;8.83;;;7.80;;
13048;SDS011;6591;51.446;5.404;2022-11-12T03:22:31;9.53;;;8.13;;
13048;SDS011;6591;51.446;5.404;2022-11-12T03:25:17;10.23;;;8.13;;
13048;SDS011;6591;51.446;5.404;2022-11-12T03:28:06;11.20;;;8.13;;
13048;SDS011;6591;51.446;5.404;2022-11-12T03:30:56;9.17;;;7.43;;
13048;SDS011;6591;51.446;5.404;2022-11-12T03:33:43;9.20;;;7.60;;
13048;SDS011;6591;51.446;5.404;2022-11-12T03:36:29;11.60;;;8.10;;
13048;SDS011;6591;51.446;5.404;2022-11-12T03:39:15;7.97;;;7.17;;
13048;SDS011;6591;51.446;5.404;2022-11-12T03:42:00;9.23;;;7.50;;
13048;SDS011;6591;51.446;5.404;2022-11-12T03:44:47;11.23;;;8.67;;
13048;SDS011;6591;51.446;5.404;2022-11-12T03:47:32;8.93;;;7.67;;
13048;SDS011;6591;51.446;5.404;2022-11-12T03:50:18;9.20;;;7.67;;
13048;SDS011;6591;51.446;5.404;2022-11-12T03:53:07;9.10;;;7.50;;
13048;SDS011;6591;51.446;5.404;2022-11-12T03:55:54;8.73;;;7.57;;
13048;SDS011;6591;51.446;5.404;2022-11-12T03:58:39;8.13;;;6.83;;
13048;SDS011;6591;51.446;5.404;2022-11-12T04:01:25;8.20;;;7.27;;
13048;SDS011;6591;51.446;5.404;2022-11-12T04:04:11;9.33;;;7.73;;
13048;SDS011;6591;51.446;5.404;2022-11-12T04:06:57;8.73;;;7.47;;
13048;SDS011;6591;51.446;5.404;2022-11-12T04:10:02;8.37;;;6.87;;
13048;SDS011;6591;51.446;5.404;2022-11-12T04:12:47;9.73;;;7.30;;
13048;SDS011;6591;51.446;5.404;2022-11-12T04:15:59;9.53;;;6.90;;
13048;SDS011;6591;51.446;5.404;2022-11-12T04:19:11;9.33;;;7.07;;
13048;SDS011;6591;51.446;5.404;2022-11-12T04:22:36;9.20;;;6.97;;
13048;SDS011;6591;51.446;5.404;2022-11-12T04:25:22;10.50;;;7.40;;
13048;SDS011;6591;51.446;5.404;2022-11-12T04:28:26;8.67;;;6.70;;
13048;SDS011;6591;51.446;5.404;2022-11-12T04:31:12;7.80;;;6.97;;
13048;SDS011;6591;51.446;5.404;2022-11-12T04:33:57;8.03;;;6.90;;
13048;SDS011;6591;51.446;5.404;2022-11-12T04:37:03;8.87;;;6.90;;
13048;SDS011;6591;51.446;5.404;2022-11-12T04:39:50;9.73;;;6.67;;
13048;SDS011;6591;51.446;5.404;2022-11-12T04:42:37;8.03;;;7.00;;
13048;SDS011;6591;51.446;5.404;2022-11-12T04:45:41;10.10;;;7.60;;
13048;SDS011;6591;51.446;5.404;2022-11-12T04:48:29;9.93;;;7.17;;
13048;SDS011;6591;51.446;5.404;2022-11-12T04:51:15;7.97;;;6.90;;
13048;SDS011;6591;51.446;5.404;2022-11-12T04:54:19;10.30;;;6.90;;
13048;SDS011;6591;51.446;5.404;2022-11-12T04:57:04;8.57;;;6.47;;
13048;SDS011;6591;51.446;5.404;2022-11-12T04:59:50;7.63;;;6.00;;
13048;SDS011;6591;51.446;5.404;2022-11-12T05:02:36;10.47;;;7.20;;
13048;SDS011;6591;51.446;5.404;2022-11-12T05:05:21;7.97;;;6.90;;
13048;SDS011;6591;51.446;5.404;2022-11-12T05:08:07;7.90;;;6.57;;
13048;SDS011;6591;51.446;5.404;2022-11-12T05:10:53;11.97;;;7.37;;
13048;SDS011;6591;51.446;5.404;2022-11-12T05:13:38;8.33;;;6.83;;
13048;SDS011;6591;51.446;5.404;2022-11-12T05:16:23;7.23;;;6.40;;
13048;SDS011;6591;51.446;5.404;2022-11-12T05:19:09;8.37;;;7.10;;
13048;SDS011;6591;51.446;5.404;2022-11-12T05:21:54;7.33;;;6.17;;
13048;SDS011;6591;51.446;5.404;2022-11-12T05:24:48;9.03;;;6.43;;
13048;SDS011;6591;51.446;5.404;2022-11-12T05:27:34;9.30;;;6.90;;
13048;SDS011;6591;51.446;5.404;2022-11-12T05:30:19;7.73;;;6.73;;
13048;SDS011;6591;51.446;5.404;2022-11-12T05:33:05;8.87;;;6.67;;
13048;SDS011;6591;51.446;5.404;2022-11-12T05:35:50;8.17;;;6.60;;
13048;SDS011;6591;51.446;5.404;2022-11-12T05:38:36;8.37;;;7.13;;
13048;SDS011;6591;51.446;5.404;2022-11-12T05:41:22;8.80;;;6.90;;
13048;SDS011;6591;51.446;5.404;2022-11-12T05:44:08;9.50;;;7.03;;
13048;SDS011;6591;51.446;5.404;2022-11-12T05:46:54;9.50;;;7.10;;
13048;SDS011;6591;51.446;5.404;2022-11-12T05:49:39;10.77;;;6.83;;
13048;SDS011;6591;51.446;5.404;2022-11-12T05:52:25;7.30;;;6.17;;
13048;SDS011;6591;51.446;5.404;2022-11-12T05:55:11;11.57;;;6.70;;
13048;SDS011;6591;51.446;5.404;2022-11-12T05:57:56;11.57;;;7.33;;
13048;SDS011;6591;51.446;5.404;2022-11-12T06:00:42;8.13;;;6.30;;
13048;SDS011;6591;51.446;5.404;2022-11-12T06:03:28;9.90;;;6.57;;
13048;SDS011;6591;51.446;5.404;2022-11-12T06:06:13;9.77;;;6.83;;
13048;SDS011;6591;51.446;5.404;2022-11-12T06:08:59;10.23;;;6.80;;
13048;SDS011;6591;51.446;5.404;2022-11-12T06:11:45;8.70;;;6.37;;
13048;SDS011;6591;51.446;5.404;2022-11-12T06:14:30;9.00;;;7.13;;
13048;SDS011;6591;51.446;5.404;2022-11-12T06:17:15;9.33;;;7.30;;
13048;SDS011;6591;51.446;5.404;2022-11-12T06:20:01;11.07;;;7.07;;
13048;SDS011;6591;51.446;5.404;2022-11-12T06:22:47;11.27;;;7.30;;
13048;SDS011;6591;51.446;5.404;2022-11-12T06:25:33;8.47;;;6.23;;
13048;SDS011;6591;51.446;5.404;2022-11-12T06:28:19;7.47;;;6.47;;
13048;SDS011;6591;51.446;5.404;2022-11-12T06:31:04;11.50;;;8.00;;
13048;SDS011;6591;51.446;5.404;2022-11-12T06:33:50;10.20;;;7.23;;
13048;SDS011;6591;51.446;5.404;2022-11-12T06:36:35;7.57;;;6.70;;
13048;SDS011;6591;51.446;5.404;2022-11-12T06:39:21;9.70;;;7.57;;
13048;SDS011;6591;51.446;5.404;2022-11-12T06:42:06;8.43;;;6.53;;
13048;SDS011;6591;51.446;5.404;2022-11-12T06:44:52;7.73;;;6.43;;
13048;SDS011;6591;51.446;5.404;2022-11-12T06:47:37;10.10;;;6.70;;
13048;SDS011;6591;51.446;5.404;2022-11-12T06:50:23;10.13;;;7.50;;
13048;SDS011;6591;51.446;5.404;2022-11-12T06:53:08;10.83;;;7.40;;
13048;SDS011;6591;51.446;5.404;2022-11-12T06:55:59;9.97;;;7.17;;
13048;SDS011;6591;51.446;5.404;2022-11-12T06:58:47;9.10;;;7.30;;
13048;SDS011;6591;51.446;5.404;2022-11-12T07:01:33;9.07;;;7.57;;
13048;SDS011;6591;51.446;5.404;2022-11-12T07:04:18;10.60;;;7.50;;
13048;SDS011;6591;51.446;5.404;2022-11-12T07:07:03;9.53;;;6.60;;
13048;SDS011;6591;51.446;5.404;2022-11-12T07:09:54;8.47;;;6.80;;
13048;SDS011;6591;51.446;5.404;2022-11-12T07:12:40;8.63;;;7.47;;
13048;SDS011;6591;51.446;5.404;2022-11-12T07:15:25;9.77;;;7.60;;
13048;SDS011;6591;51.446;5.404;2022-11-12T07:18:10;9.77;;;6.97;;
13048;SDS011;6591;51.446;5.404;2022-11-12T07:20:57;8.60;;;6.67;;
13048;SDS011;6591;51.446;5.404;2022-11-12T07:23:48;8.40;;;6.33;;
13048;SDS011;6591;51.446;5.404;2022-11-12T07:26:34;9.80;;;6.50;;
13048;SDS011;6591;51.446;5.404;2022-11-12T07:29:19;8.63;;;6.43;;
13048;SDS011;6591;51.446;5.404;2022-11-12T07:32:25;8.57;;;6.30;;
13048;SDS011;6591;51.446;5.404;2022-11-12T07:35:10;8.37;;;7.03;;
13048;SDS011;6591;51.446;5.404;2022-11-12T07:37:56;8.70;;;6.43;;
13048;SDS011;6591;51.446;5.404;2022-11-12T07:40:43;9.13;;;6.70;;
13048;SDS011;6591;51.446;5.404;2022-11-12T07:43:30;7.83;;;6.73;;
13048;SDS011;6591;51.446;5.404;2022-11-12T07:46:21;9.43;;;7.27;;
13048;SDS011;6591;51.446;5.404;2022-11-12T07:49:10;8.80;;;7.43;;
13048;SDS011;6591;51.446;5.404;2022-11-12T07:51:55;10.37;;;7.20;;
13048;SDS011;6591;51.446;5.404;2022-11-12T07:54:41;9.17;;;7.17;;
13048;SDS011;6591;51.446;5.404;2022-11-12T07:57:27;8.17;;;7.30;;
13048;SDS011;6591;51.446;5.404;2022-11-12T08:00:13;8.23;;;6.60;;
13048;SDS011;6591;51.446;5.404;2022-11-12T08:02:59;14.37;;;11.00;;
13048;SDS011;6591;51.446;5.404;2022-11-12T08:05:45;9.93;;;8.63;;
13048;SDS011;6591;51.446;5.404;2022-11-12T08:08:31;10.50;;;8.83;;
13048;SDS011;6591;51.446;5.404;2022-11-12T08:11:17;9.67;;;7.80;;
13048;SDS011;6591;51.446;5.404;2022-11-12T08:14:02;8.00;;;6.43;;
13048;SDS011;6591;51.446;5.404;2022-11-12T08:16:48;10.00;;;7.20;;
13048;SDS011;6591;51.446;5.404;2022-11-12T08:19:33;11.63;;;7.67;;
13048;SDS011;6591;51.446;5.404;2022-11-12T08:22:19;9.93;;;6.67;;
13048;SDS011;6591;51.446;5.404;2022-11-12T08:25:05;9.07;;;8.00;;
13048;SDS011;6591;51.446;5.404;2022-11-12T08:27:54;10.77;;;8.20;;
13048;SDS011;6591;51.446;5.404;2022-11-12T08:30:43;8.67;;;7.30;;
13048;SDS011;6591;51.446;5.404;2022-11-12T08:33:29;7.97;;;6.87;;
13048;SDS011;6591;51.446;5.404;2022-11-12T08:36:15;9.27;;;7.10;;
13048;SDS011;6591;51.446;5.404;2022-11-12T08:39:02;8.63;;;7.00;;
13048;SDS011;6591;51.446;5.404;2022-11-12T08:41:47;8.00;;;6.33;;
13048;SDS011;6591;51.446;5.404;2022-11-12T08:44:33;8.47;;;6.53;;
13048;SDS011;6591;51.446;5.404;2022-11-12T08:47:18;9.87;;;7.00;;
13048;SDS011;6591;51.446;5.404;2022-11-12T08:50:04;8.93;;;6.77;;
13048;SDS011;6591;51.446;5.404;2022-11-12T08:52:50;7.63;;;6.83;;
13048;SDS011;6591;51.446;5.404;2022-11-12T08:55:35;8.03;;;6.43;;
13048;SDS011;6591;51.446;5.404;2022-11-12T08:58:21;7.87;;;6.73;;
13048;SDS011;6591;51.446;5.404;2022-11-12T09:01:09;7.50;;;6.07;;
13048;SDS011;6591;51.446;5.404;2022-11-12T09:03:54;8.57;;;7.23;;
13048;SDS011;6591;51.446;5.404;2022-11-12T09:06:40;8.43;;;6.37;;
13048;SDS011;6591;51.446;5.404;2022-11-12T09:09:25;9.57;;;7.33;;
13048;SDS011;6591;51.446;5.404;2022-11-12T09:12:11;8.93;;;7.03;;
13048;SDS011;6591;51.446;5.404;2022-11-12T09:15:04;9.00;;;6.60;;
13048;SDS011;6591;51.446;5.404;2022-11-12T09:18:11;7.63;;;6.80;;
13048;SDS011;6591;51.446;5.404;2022-11-12T09:21:05;8.00;;;6.30;;
13048;SDS011;6591;51.446;5.404;2022-11-12T09:23:55;9.00;;;6.90;;
13048;SDS011;6591;51.446;5.404;2022-11-12T09:26:41;7.73;;;6.67;;
13048;SDS011;6591;51.446;5.404;2022-11-12T09:29:26;9.23;;;6.60;;
13048;SDS011;6591;51.446;5.404;2022-11-12T09:32:11;7.83;;;6.63;;
13048;SDS011;6591;51.446;5.404;2022-11-12T09:34:57;6.73;;;6.03;;
13048;SDS011;6591;51.446;5.404;2022-11-12T09:37:42;6.80;;;6.10;;
13048;SDS011;6591;51.446;5.404;2022-11-12T09:40:40;7.60;;;6.00;;
13048;SDS011;6591;51.446;5.404;2022-11-12T09:43:39;7.67;;;5.80;;
13048;SDS011;6591;51.446;5.404;2022-11-12T09:46:42;7.07;;;5.63;;
13048;SDS011;6591;51.446;5.404;2022-11-12T09:49:44;7.20;;;5.57;;
13048;SDS011;6591;51.446;5.404;2022-11-12T09:53:14;6.77;;;5.43;;
13048;SDS011;6591;51.446;5.404;2022-11-12T09:56:06;6.20;;;5.03;;
13048;SDS011;6591;51.446;5.404;2022-11-12T09:58:56;5.73;;;4.93;;
13048;SDS011;6591;51.446;5.404;2022-11-12T10:01:48;6.20;;;5.60;;
13048;SDS011;6591;51.446;5.404;2022-11-12T10:17:34;5.17;;;4.67;;
13048;SDS011;6591;51.446;5.404;2022-11-12T10:23:43;5.80;;;5.20;;
13048;SDS011;6591;51.446;5.404;2022-11-12T10:26:32;5.53;;;5.03;;
13048;SDS011;6591;51.446;5.404;2022-11-12T10:29:29;7.20;;;5.20;;
13048;SDS011;6591;51.446;5.404;2022-11-12T10:32:21;7.37;;;5.33;;
13048;SDS011;6591;51.446;5.404;2022-11-12T10:35:06;8.30;;;5.50;;
13048;SDS011;6591;51.446;5.404;2022-11-12T10:38:13;6.40;;;5.10;;
13048;SDS011;6591;51.446;5.404;2022-11-12T10:41:29;5.63;;;5.00;;
13048;SDS011;6591;51.446;5.404;2022-11-12T10:44:17;5.33;;;4.63;;
13048;SDS011;6591;51.446;5.404;2022-11-12T10:47:17;6.27;;;4.77;;
13048;SDS011;6591;51.446;5.404;2022-11-12T10:53:35;6.27;;;4.20;;
13048;SDS011;6591;51.446;5.404;2022-11-12T10:56:27;7.53;;;4.70;;
13048;SDS011;6591;51.446;5.404;2022-11-12T10:59:19;5.90;;;4.60;;
13048;SDS011;6591;51.446;5.404;2022-11-12T11:02:16;5.87;;;4.50;;
13048;SDS011;6591;51.446;5.404;2022-11-12T11:08:30;4.67;;;4.10;;
13048;SDS011;6591;51.446;5.404;2022-11-12T11:11:29;6.33;;;4.47;;
13048;SDS011;6591;51.446;5.404;2022-11-12T11:14:23;5.17;;;4.37;;
13048;SDS011;6591;51.446;5.404;2022-11-12T11:17:15;6.37;;;4.67;;
13048;SDS011;6591;51.446;5.404;2022-11-12T11:20:04;5.60;;;4.33;;
13048;SDS011;6591;51.446;5.404;2022-11-12T11:23:21;4.73;;;4.30;;
13048;SDS011;6591;51.446;5.404;2022-11-12T11:26:26;5.33;;;3.97;;
13048;SDS011;6591;51.446;5.404;2022-11-12T11:32:52;5.33;;;4.20;;
13048;SDS011;6591;51.446;5.404;2022-11-12T11:38:48;4.57;;;3.63;;
13048;SDS011;6591;51.446;5.404;2022-11-12T11:41:51;4.33;;;3.90;;
13048;SDS011;6591;51.446;5.404;2022-11-12T11:58:29;4.20;;;3.60;;
13048;SDS011;6591;51.446;5.404;2022-11-12T12:01:35;5.33;;;3.77;;
13048;SDS011;6591;51.446;5.404;2022-11-12T12:04:50;4.45;;;3.60;;
13048;SDS011;6591;51.446;5.404;2022-11-12T12:08:10;4.88;;;3.70;;
13048;SDS011;6591;51.446;5.404;2022-11-12T12:14:32;4.15;;;3.25;;
13048;SDS011;6591;51.446;5.404;2022-11-12T12:24:01;5.15;;;3.67;;
13048;SDS011;6591;51.446;5.404;2022-11-12T12:26:57;3.47;;;3.08;;
13048;SDS011;6591;51.446;5.404;2022-11-12T12:29:55;4.05;;;3.47;;
13048;SDS011;6591;51.446;5.404;2022-11-12T12:33:01;4.43;;;3.45;;
13048;SDS011;6591;51.446;5.404;2022-11-12T12:36:53;4.68;;;3.38;;
13048;SDS011;6591;51.446;5.404;2022-11-12T12:39:33;4.68;;;3.40;;
13048;SDS011;6591;51.446;5.404;2022-11-12T12:42:33;4.28;;;3.58;;
13048;SDS011;6591;51.446;5.404;2022-11-12T12:46:02;4.82;;;3.35;;
13048;SDS011;6591;51.446;5.404;2022-11-12T12:48:49;3.92;;;3.53;;
13048;SDS011;6591;51.446;5.404;2022-11-12T12:51:38;4.88;;;4.30;;
13048;SDS011;6591;51.446;5.404;2022-11-12T12:55:14;4.25;;;3.83;;
13048;SDS011;6591;51.446;5.404;2022-11-12T12:57:36;4.18;;;3.75;;
13048;SDS011;6591;51.446;5.404;2022-11-12T13:09:35;4.05;;;3.70;;
13048;SDS011;6591;51.446;5.404;2022-11-12T13:12:20;4.90;;;3.80;;
13048;SDS011;6591;51.446;5.404;2022-11-12T13:15:51;3.95;;;3.55;;
13048;SDS011;6591;51.446;5.404;2022-11-12T13:21:24;4.35;;;3.63;;
13048;SDS011;6591;51.446;5.404;2022-11-12T13:24:11;3.90;;;3.35;;
13048;SDS011;6591;51.446;5.404;2022-11-12T13:26:58;5.18;;;4.00;;
13048;SDS011;6591;51.446;5.404;2022-11-12T13:29:45;4.35;;;3.70;;
13048;SDS011;6591;51.446;5.404;2022-11-12T13:35:35;3.97;;;3.40;;
13048;SDS011;6591;51.446;5.404;2022-11-12T13:38:23;4.55;;;3.33;;
13048;SDS011;6591;51.446;5.404;2022-11-12T13:44:03;4.40;;;3.03;;
13048;SDS011;6591;51.446;5.404;2022-11-12T13:46:52;4.03;;;3.08;;
13048;SDS011;6591;51.446;5.404;2022-11-12T13:49:40;4.63;;;3.80;;
13048;SDS011;6591;51.446;5.404;2022-11-12T13:52:29;5.97;;;4.22;;
13048;SDS011;6591;51.446;5.404;2022-11-12T13:58:04;6.95;;;5.45;;
13048;SDS011;6591;51.446;5.404;2022-11-12T14:01:03;6.70;;;5.25;;
13048;SDS011;6591;51.446;5.404;2022-11-12T14:03:51;6.10;;;5.47;;
13048;SDS011;6591;51.446;5.404;2022-11-12T14:06:39;6.47;;;5.70;;
13048;SDS011;6591;51.446;5.404;2022-11-12T14:09:54;6.38;;;5.20;;
13048;SDS011;6591;51.446;5.404;2022-11-12T14:13:05;7.18;;;5.25;;
13048;SDS011;6591;51.446;5.404;2022-11-12T14:23:19;4.28;;;3.88;;
13048;SDS011;6591;51.446;5.404;2022-11-12T14:26:09;4.50;;;4.10;;
13048;SDS011;6591;51.446;5.404;2022-11-12T14:28:57;4.88;;;4.18;;
13048;SDS011;6591;51.446;5.404;2022-11-12T14:31:44;5.85;;;5.03;;
13048;SDS011;6591;51.446;5.404;2022-11-12T14:34:31;6.07;;;4.80;;
13048;SDS011;6591;51.446;5.404;2022-11-12T14:37:54;4.57;;;4.05;;
13048;SDS011;6591;51.446;5.404;2022-11-12T14:40:46;6.72;;;4.68;;
13048;SDS011;6591;51.446;5.404;2022-11-12T14:43:47;4.70;;;4.22;;
13048;SDS011;6591;51.446;5.404;2022-11-12T14:46:55;5.95;;;4.40;;
13048;SDS011;6591;51.446;5.404;2022-11-12T14:49:42;5.85;;;4.60;;
13048;SDS011;6591;51.446;5.404;2022-11-12T14:52:34;5.43;;;4.63;;
13048;SDS011;6591;51.446;5.404;2022-11-12T14:55:27;6.60;;;5.55;;
13048;SDS011;6591;51.446;5.404;2022-11-12T14:58:21;7.50;;;5.88;;
13048;SDS011;6591;51.446;5.404;2022-11-12T15:04:34;7.50;;;5.70;;
13048;SDS011;6591;51.446;5.404;2022-11-12T15:07:54;7.72;;;5.78;;
13048;SDS011;6591;51.446;5.404;2022-11-12T15:10:55;8.27;;;5.50;;
13048;SDS011;6591;51.446;5.404;2022-11-12T15:14:04;6.00;;;5.40;;
13048;SDS011;6591;51.446;5.404;2022-11-12T15:16:54;10.60;;;6.03;;
13048;SDS011;6591;51.446;5.404;2022-11-12T15:19:40;6.97;;;6.10;;
13048;SDS011;6591;51.446;5.404;2022-11-12T15:22:26;7.88;;;6.60;;
13048;SDS011;6591;51.446;5.404;2022-11-12T15:28:19;8.52;;;6.45;;
13048;SDS011;6591;51.446;5.404;2022-11-12T15:31:18;7.07;;;5.73;;
13048;SDS011;6591;51.446;5.404;2022-11-12T15:37:29;9.17;;;6.23;;
13048;SDS011;6591;51.446;5.404;2022-11-12T15:40:26;7.23;;;6.20;;
13048;SDS011;6591;51.446;5.404;2022-11-12T15:43:17;8.73;;;6.53;;
13048;SDS011;6591;51.446;5.404;2022-11-12T15:46:11;8.30;;;6.70;;
13048;SDS011;6591;51.446;5.404;2022-11-12T15:48:59;9.17;;;6.13;;
13048;SDS011;6591;51.446;5.404;2022-11-12T15:51:44;7.57;;;6.17;;
13048;SDS011;6591;51.446;5.404;2022-11-12T15:54:30;7.87;;;6.77;;
13048;SDS011;6591;51.446;5.404;2022-11-12T15:57:22;8.10;;;6.97;;
13048;SDS011;6591;51.446;5.404;2022-11-12T16:00:14;8.23;;;6.23;;
13048;SDS011;6591;51.446;5.404;2022-11-12T16:03:13;8.20;;;5.77;;
13048;SDS011;6591;51.446;5.404;2022-11-12T16:06:01;8.07;;;6.43;;
13048;SDS011;6591;51.446;5.404;2022-11-12T16:08:53;7.63;;;6.70;;
13048;SDS011;6591;51.446;5.404;2022-11-12T16:11:39;8.23;;;6.63;;
13048;SDS011;6591;51.446;5.404;2022-11-12T16:14:24;9.40;;;7.33;;
13048;SDS011;6591;51.446;5.404;2022-11-12T16:17:14;10.67;;;8.33;;
13048;SDS011;6591;51.446;5.404;2022-11-12T16:20:04;9.07;;;7.23;;
13048;SDS011;6591;51.446;5.404;2022-11-12T16:23:05;10.33;;;6.97;;
13048;SDS011;6591;51.446;5.404;2022-11-12T16:25:50;12.37;;;8.10;;
13048;SDS011;6591;51.446;5.404;2022-11-12T16:28:36;11.07;;;8.40;;
13048;SDS011;6591;51.446;5.404;2022-11-12T16:31:22;9.63;;;8.60;;
13048;SDS011;6591;51.446;5.404;2022-11-12T16:34:08;11.20;;;9.43;;
13048;SDS011;6591;51.446;5.404;2022-11-12T16:36:55;12.47;;;9.90;;
13048;SDS011;6591;51.446;5.404;2022-11-12T16:39:42;12.00;;;9.37;;
13048;SDS011;6591;51.446;5.404;2022-11-12T16:42:27;10.63;;;9.07;;
13048;SDS011;6591;51.446;5.404;2022-11-12T16:45:14;11.03;;;8.13;;
13048;SDS011;6591;51.446;5.404;2022-11-12T16:48:12;11.00;;;7.90;;
13048;SDS011;6591;51.446;5.404;2022-11-12T16:51:03;10.30;;;7.93;;
13048;SDS011;6591;51.446;5.404;2022-11-12T16:53:49;10.80;;;7.80;;
13048;SDS011;6591;51.446;5.404;2022-11-12T16:56:35;8.60;;;7.67;;
13048;SDS011;6591;51.446;5.404;2022-11-12T16:59:20;9.93;;;8.00;;
13048;SDS011;6591;51.446;5.404;2022-11-12T17:02:09;10.23;;;8.73;;
13048;SDS011;6591;51.446;5.404;2022-11-12T17:05:05;12.20;;;8.30;;
13048;SDS011;6591;51.446;5.404;2022-11-12T17:08:00;9.63;;;8.47;;
13048;SDS011;6591;51.446;5.404;2022-11-12T17:10:46;13.37;;;8.30;;
13048;SDS011;6591;51.446;5.404;2022-11-12T17:13:31;11.07;;;9.10;;
13048;SDS011;6591;51.446;5.404;2022-11-12T17:16:17;11.10;;;9.43;;
13048;SDS011;6591;51.446;5.404;2022-11-12T17:19:02;16.03;;;9.70;;
13048;SDS011;6591;51.446;5.404;2022-11-12T17:21:49;12.27;;;9.77;;
13048;SDS011;6591;51.446;5.404;2022-11-12T17:24:34;11.73;;;9.40;;
13048;SDS011;6591;51.446;5.404;2022-11-12T17:27:20;10.40;;;9.20;;
13048;SDS011;6591;51.446;5.404;2022-11-12T17:30:05;17.00;;;9.77;;
13048;SDS011;6591;51.446;5.404;2022-11-12T17:32:51;10.73;;;9.60;;
13048;SDS011;6591;51.446;5.404;2022-11-12T17:35:36;11.60;;;9.67;;
13048;SDS011;6591;51.446;5.404;2022-11-12T17:38:22;13.00;;;9.80;;
13048;SDS011;6591;51.446;5.404;2022-11-12T17:41:09;11.80;;;9.77;;
13048;SDS011;6591;51.446;5.404;2022-11-12T17:43:55;11.97;;;9.57;;
13048;SDS011;6591;51.446;5.404;2022-11-12T17:46:44;13.47;;;10.00;;
13048;SDS011;6591;51.446;5.404;2022-11-12T17:49:31;12.17;;;9.70;;
13048;SDS011;6591;51.446;5.404;2022-11-12T17:52:16;15.07;;;10.37;;
13048;SDS011;6591;51.446;5.404;2022-11-12T17:55:01;11.23;;;9.50;;
13048;SDS011;6591;51.446;5.404;2022-11-12T17:57:47;12.53;;;9.40;;
13048;SDS011;6591;51.446;5.404;2022-11-12T18:00:34;12.03;;;9.93;;
13048;SDS011;6591;51.446;5.404;2022-11-12T18:03:21;16.03;;;10.67;;
13048;SDS011;6591;51.446;5.404;2022-11-12T18:06:18;13.73;;;10.77;;
13048;SDS011;6591;51.446;5.404;2022-11-12T18:09:12;13.13;;;10.40;;
13048;SDS011;6591;51.446;5.404;2022-11-12T18:11:59;15.33;;;10.73;;
13048;SDS011;6591;51.446;5.404;2022-11-12T18:14:45;14.50;;;11.10;;
13048;SDS011;6591;51.446;5.404;2022-11-12T18:17:33;12.07;;;10.50;;
13048;SDS011;6591;51.446;5.404;2022-11-12T18:20:20;14.37;;;10.63;;
13048;SDS011;6591;51.446;5.404;2022-11-12T18:23:05;13.47;;;9.80;;
13048;SDS011;6591;51.446;5.404;2022-11-12T18:25:51;18.20;;;10.40;;
13048;SDS011;6591;51.446;5.404;2022-11-12T18:28:36;12.37;;;10.10;;
13048;SDS011;6591;51.446;5.404;2022-11-12T18:31:22;15.60;;;11.77;;
13048;SDS011;6591;51.446;5.404;2022-11-12T18:34:12;14.87;;;11.27;;
13048;SDS011;6591;51.446;5.404;2022-11-12T18:36:58;13.17;;;9.93;;
13048;SDS011;6591;51.446;5.404;2022-11-12T18:39:44;14.07;;;9.90;;
13048;SDS011;6591;51.446;5.404;2022-11-12T18:42:29;13.53;;;10.10;;
13048;SDS011;6591;51.446;5.404;2022-11-12T18:45:15;13.73;;;10.20;;
13048;SDS011;6591;51.446;5.404;2022-11-12T18:48:00;15.27;;;10.50;;